Detroit, MI

8:45 AM EDT on September 05, 2015 (GMT -0400)
KMIBROWN4 | | Change Station
CLOSE
Current Station
Personal Weather Station
Location: Brownstown, MI
Elevation: 623 ft
Nearby Weather Stations

Elev 623 ft 42.16 °N, 83.30 °W | Updated 3 minutes ago

Overcast
Overcast
68.7 °F
Feels Like 68.7 °F
N
0.0
Wind Variable Wind from SSW
Gusts 6.0 mph

Today
High -- | Low -- °F
--% Chance of Precip.
Yesterday
High -- | Low -- °F
Precip. -- in
7:02 AM 8:00 PM
Waning Gibbous, 49% visible
Pressure 30.15 in
Visibility 9.0 miles
Clouds Mostly Cloudy 1500 ft
Overcast 2000 ft
Dew Point 67 °F
Humidity 95%
Rainfall 0.00 in
Snow Depth Not available.
UV 0 out of 12
Pollen 7.50 out of 12
Air Quality Not available.
Flu Activity Not available.
METAR KDTW 051153Z 18009KT 9SM BKN015 OVC020 21/19 A3016 RMK AO2 SLP209 T02110194 10211 20206 53017 $
Pressure 30.15 in
Visibility 9.0 miles
Clouds Mostly Cloudy 1500 ft
Overcast 2000 ft
Dew Point 67 °F
Humidity 95%
Rainfall 0.00 in
Snow Depth Not available.
UV 0 out of 12
Pollen 7.50 out of 12
Air Quality Not available.
Flu Activity Not available.
METAR KDTW 051153Z 18009KT 9SM BKN015 OVC020 21/19 A3016 RMK AO2 SLP209 T02110194 10211 20206 53017 $

10-Day Weather Forecast

×

Almanac

Astronomy

Sep. 05, 2015 Rise Set
Actual Time
Civil Twilight
Nautical Twilight
Astronomical Twilight
Moon
Length of Visible Light
Length of Day
Tomorrow will be .
, % of the Moon is Illuminated

Today's Extremes

State Highs State Lows

Community

WunderPhotos

Upload Photos

1,852,454 photos uploaded!

WunderBlogs® & News

Nearby

Air Quality

  Air Quality AQ Index Pollutant
Not available.

Snow Depth

Station Depth Elevation

Earthquake Activity

City Distance Mag. Time & Date
Minimum magnitude displayed is 2.5.

Coastal Water Temperatures

Place Temperature

Stations

Nearby Weather Stations

Station Location Temp. Windchill Dew Point Humidity Wind Precip. Elev Updated Type